Time;durP1;ratioP1;P1;durP2;ratioP2;P2;SDS_P1;SDS_P2;PMS_P1;PMS_P2;Temp;Humidity;BMP_temperature;BMP_pressure;BME280_temperature;BME280_humidity;BME280_pressure;Samples;Min_cycle;Max_cycle;Signal;HPM_P1;HPM_P2
2022/10/12 00:01:15;;;;;;;16.33;7.03;;;;;;;5.70;97.63;102359.63;5121271;27;20019;-82
2022/10/12 00:03:40;;;;;;;17.35;6.68;;;;;;;5.73;98.21;102364.75;5121354;27;20121;-82
2022/10/12 00:06:28;;;;;;;14.13;6.43;;;;;;;5.74;98.13;102361.03;5121177;27;20347;-82
2022/10/12 00:08:54;;;;;;;16.30;6.75;;;;;;;5.75;98.44;102360.06;5137351;27;20474;-82
2022/10/12 00:11:25;;;;;;;15.90;6.10;;;;;;;5.75;98.97;102358.19;5138332;27;20030;-82
2022/10/12 00:13:52;;;;;;;16.95;8.13;;;;;;;5.72;98.50;102353.09;5156714;27;20044;-82
2022/10/12 00:16:18;;;;;;;16.63;6.90;;;;;;;5.69;98.37;102349.88;5137975;27;20027;-82
2022/10/12 00:18:48;;;;;;;15.15;7.00;;;;;;;5.67;98.77;102354.53;5156511;27;20022;-82
2022/10/12 00:21:15;;;;;;;15.13;7.10;;;;;;;5.64;98.89;102347.63;5137978;27;20023;-82
2022/10/12 00:23:42;;;;;;;12.32;6.03;;;;;;;5.61;98.75;102356.00;5138655;27;20423;-82
2022/10/12 00:26:11;;;;;;;18.67;7.22;;;;;;;5.60;99.59;102355.13;5137836;27;20469;-82
2022/10/12 00:28:37;;;;;;;12.60;6.47;;;;;;;5.61;99.22;102356.00;5136959;27;20026;-82
2022/10/12 00:31:08;;;;;;;17.53;6.77;;;;;;;5.57;99.48;102358.13;5155982;27;20014;-82
2022/10/12 00:33:33;;;;;;;18.05;7.13;;;;;;;5.54;99.28;102352.19;5137699;27;20034;-82
2022/10/12 00:35:59;;;;;;;14.13;6.50;;;;;;;5.55;99.28;102356.56;5120486;27;20041;-82
2022/10/12 00:38:24;;;;;;;16.37;6.50;;;;;;;5.52;99.57;102352.34;5137654;27;20034;-82
2022/10/12 00:40:50;;;;;;;13.70;7.03;;;;;;;5.53;99.46;102347.78;5137457;27;20018;-82
2022/10/12 00:43:35;;;;;;;13.52;6.68;;;;;;;5.53;99.68;102348.63;5120982;27;20030;-82
2022/10/12 00:46:03;;;;;;;13.23;6.30;;;;;;;5.55;99.65;102351.16;5137405;27;20018;-82
2022/10/12 00:48:29;;;;;;;15.17;7.20;;;;;;;5.58;100.00;102353.56;5137469;27;20027;-82
2022/10/12 00:50:56;;;;;;;16.42;6.97;;;;;;;5.62;99.47;102361.25;5120602;27;20037;-82
2022/10/12 00:53:30;;;;;;;16.23;6.88;;;;;;;5.67;99.55;102360.78;5137600;27;20030;-82
2022/10/12 00:55:59;;;;;;;18.52;6.43;;;;;;;5.71;99.14;102367.56;5137687;27;20019;-82
2022/10/12 00:58:30;;;;;;;13.93;6.22;;;;;;;5.74;99.24;102356.53;5137820;27;20034;-82
2022/10/12 01:00:55;;;;;;;16.58;6.38;;;;;;;5.79;98.90;102365.00;5137139;27;20033;-82
2022/10/12 01:03:21;;;;;;;15.23;6.97;;;;;;;5.83;99.14;102367.41;5137639;27;20370;-83
2022/10/12 01:05:49;;;;;;;14.68;6.95;;;;;;;5.86;99.17;102367.09;5155964;27;20023;-82
2022/10/12 01:08:15;;;;;;;18.65;7.00;;;;;;;5.86;98.71;102364.41;5102799;27;20094;-82
2022/10/12 01:10:40;;;;;;;17.20;6.37;;;;;;;5.88;98.81;102354.34;5120600;27;20118;-83
2022/10/12 01:13:06;;;;;;;12.70;6.40;;;;;;;5.88;98.50;102355.19;5137449;27;20454;-83
2022/10/12 01:15:44;;;;;;;14.85;6.47;;;;;;;5.89;97.48;102343.44;5155650;27;20420;-83
2022/10/12 01:18:26;;;;;;;13.13;6.60;;;;;;;5.89;97.70;102345.25;5137381;27;20022;-82
2022/10/12 01:21:07;;;;;;;14.43;6.38;;;;;;;5.91;98.31;102343.28;5156225;27;20078;-82
2022/10/12 01:23:55;;;;;;;15.43;6.57;;;;;;;5.92;98.33;102340.44;5155294;27;20023;-82
2022/10/12 01:26:49;;;;;;;17.45;6.85;;;;;;;5.96;98.76;102332.88;5156472;27;20022;-82
2022/10/12 01:29:51;;;;;;;16.48;6.53;;;;;;;5.94;98.04;102327.66;5101668;27;20109;-83
2022/10/12 01:32:22;;;;;;;15.27;6.43;;;;;;;5.93;97.72;102331.34;5137043;27;20026;-83
2022/10/12 01:35:15;;;;;;;17.25;6.80;;;;;;;5.91;98.14;102327.94;5137185;27;20446;-82
2022/10/12 01:38:31;;;;;;;19.00;6.63;;;;;;;5.91;98.35;102330.66;5137210;27;20028;-83
2022/10/12 01:41:45;;;;;;;15.30;6.05;;;;;;;5.91;98.21;102324.41;5058449;28;20028;-82
2022/10/12 01:44:11;;;;;;;15.85;6.35;;;;;;;5.90;98.22;102318.16;5054386;28;20033;-82
2022/10/12 01:46:42;;;;;;;12.67;6.37;;;;;;;5.88;98.66;102320.16;5113837;27;20035;-82
2022/10/12 01:49:08;;;;;;;14.98;6.10;;;;;;;5.86;98.98;102308.72;5140730;27;20276;-82
2022/10/12 01:51:53;;;;;;;19.00;6.25;;;;;;;5.83;99.03;102308.13;5106629;27;20023;-82
2022/10/12 01:54:36;;;;;;;16.85;5.90;;;;;;;5.80;99.09;102315.53;5141096;27;20036;-83
2022/10/12 01:57:05;;;;;;;13.82;5.93;;;;;;;5.82;99.50;102312.69;5141118;27;20030;-83
2022/10/12 01:59:43;;;;;;;16.15;5.68;;;;;;;5.82;99.71;102307.31;5140663;27;20347;-82
2022/10/12 02:02:33;;;;;;;13.20;6.10;;;;;;;5.85;99.85;102311.56;5140432;27;20031;-82
2022/10/12 02:05:13;;;;;;;14.18;6.18;;;;;;;5.84;99.48;102313.38;5140548;27;20093;-82
2022/10/12 02:07:48;;;;;;;15.40;6.68;;;;;;;5.86;99.32;102313.22;5158839;27;20022;-82
2022/10/12 02:10:21;;;;;;;13.63;6.20;;;;;;;5.85;99.69;102307.00;5140770;27;20041;-83
2022/10/12 02:12:49;;;;;;;17.83;6.40;;;;;;;5.83;99.43;102302.75;5159094;27;20454;-82
2022/10/12 02:15:16;;;;;;;13.50;5.53;;;;;;;5.82;100.00;102304.59;5140481;27;20093;-82
2022/10/12 02:17:46;;;;;;;11.45;5.22;;;;;;;5.79;99.96;102297.66;5159133;27;20027;-82
2022/10/12 02:20:14;;;;;;;15.43;6.03;;;;;;;5.79;99.77;102296.81;5140638;27;20022;-82
2022/10/12 02:22:41;;;;;;;16.05;6.10;;;;;;;5.80;99.63;102298.50;5140175;27;20477;-82
2022/10/12 02:25:11;;;;;;;13.02;6.00;;;;;;;5.78;99.50;102284.34;5105903;27;20031;-82
2022/10/12 02:27:41;;;;;;;12.02;6.05;;;;;;;5.73;99.10;102284.78;5140177;27;20050;-82
2022/10/12 02:30:07;;;;;;;11.48;5.82;;;;;;;5.69;98.43;102287.94;5140018;27;20034;-82
2022/10/12 02:33:05;;;;;;;15.32;5.70;;;;;;;5.68;99.10;102291.63;5122541;27;20113;-82
2022/10/12 02:35:45;;;;;;;12.70;5.93;;;;;;;5.63;99.21;102295.59;5140798;27;20050;-82
2022/10/12 02:38:18;;;;;;;14.65;6.25;;;;;;;5.63;100.00;102292.06;5139902;27;20026;-82
2022/10/12 02:40:59;;;;;;;15.75;5.78;;;;;;;5.61;100.00;102299.44;5140207;27;20025;-82
2022/10/12 02:43:33;;;;;;;14.50;5.85;;;;;;;5.57;100.00;102293.50;5139960;27;20015;-83
2022/10/12 02:46:00;;;;;;;11.63;6.20;;;;;;;5.50;100.00;102294.22;5140085;27;20125;-83
2022/10/12 02:48:27;;;;;;;15.63;6.50;;;;;;;5.44;99.72;102291.13;5139628;27;20022;-83
2022/10/12 02:50:56;;;;;;;11.75;6.15;;;;;;;5.40;100.00;102284.34;5138603;27;20019;-82
2022/10/12 02:53:28;;;;;;;14.23;5.10;;;;;;;5.37;99.61;102279.22;5139621;27;20029;-82
2022/10/12 02:56:00;;;;;;;12.65;6.00;;;;;;;5.37;100.00;102281.91;5158224;27;20031;-82
2022/10/12 02:58:25;;;;;;;14.55;5.20;;;;;;;5.33;99.94;102267.09;5140374;27;20052;-82
2022/10/12 03:00:51;;;;;;;15.93;6.30;;;;;;;5.29;100.00;102283.69;5139202;27;20470;-83
2022/10/12 03:03:16;;;;;;;15.27;5.73;;;;;;;5.26;100.00;102274.88;5139409;27;20075;-83
2022/10/12 03:05:42;;;;;;;12.13;5.72;;;;;;;5.22;99.85;102273.47;5139608;27;20027;-82
2022/10/12 03:08:07;;;;;;;11.93;5.50;;;;;;;5.20;100.00;102272.78;5139049;27;20130;-82
2022/10/12 03:10:33;;;;;;;15.00;5.80;;;;;;;5.13;100.00;102263.56;5139403;27;20237;-83
2022/10/12 03:12:58;;;;;;;16.25;5.50;;;;;;;5.08;100.00;102266.72;5139847;27;20036;-82
2022/10/12 03:15:24;;;;;;;14.53;5.70;;;;;;;5.04;100.00;102269.84;5157822;27;20034;-83
2022/10/12 03:17:49;;;;;;;11.23;5.40;;;;;;;5.01;100.00;102267.44;5139146;27;20026;-83
2022/10/12 03:20:15;;;;;;;14.23;5.40;;;;;;;4.96;100.00;102270.56;5121649;27;20417;-83
2022/10/12 03:22:40;;;;;;;11.07;5.60;;;;;;;4.91;100.00;102268.28;5157457;27;20030;-83
2022/10/12 03:25:06;;;;;;;12.60;5.57;;;;;;;4.86;100.00;102259.81;5121793;27;20374;-83
2022/10/12 03:27:31;;;;;;;11.10;4.90;;;;;;;4.84;100.00;102264.50;5121650;27;20457;-83
2022/10/12 03:29:56;;;;;;;14.75;5.82;;;;;;;4.82;100.00;102263.75;5157513;27;20040;-83
2022/10/12 03:32:22;;;;;;;12.03;5.40;;;;;;;4.77;100.00;102266.03;5138865;27;20058;-83
2022/10/12 03:34:47;;;;;;;11.70;5.37;;;;;;;4.72;100.00;102266.47;5138876;27;20015;-83
2022/10/12 03:37:13;;;;;;;14.27;5.63;;;;;;;4.69;100.00;102268.56;5105323;27;20442;-82
2022/10/12 03:39:39;;;;;;;11.97;6.00;;;;;;;4.67;100.00;102267.88;5157318;27;20526;-82
2022/10/12 03:42:04;;;;;;;11.52;5.85;;;;;;;4.65;100.00;102270.72;5121314;27;20023;-82
2022/10/12 03:44:30;;;;;;;14.37;5.37;;;;;;;4.60;100.00;102266.75;5138935;27;20030;-82
2022/10/12 03:46:55;;;;;;;10.98;5.57;;;;;;;4.56;100.00;102272.41;5121157;27;20374;-82
2022/10/12 03:49:21;;;;;;;18.43;6.40;;;;;;;4.55;100.00;102268.00;5121220;27;20034;-82
2022/10/12 03:51:46;;;;;;;10.67;5.60;;;;;;;4.58;100.00;102266.88;5121379;27;20029;-82
2022/10/12 03:54:11;;;;;;;11.97;6.57;;;;;;;4.56;100.00;102267.03;5104942;27;20026;-82
2022/10/12 03:56:39;;;;;;;13.15;5.75;;;;;;;4.51;100.00;102263.91;5138513;27;20061;-82
2022/10/12 03:59:05;;;;;;;16.90;6.27;;;;;;;4.49;100.00;102271.28;5139054;27;20022;-83
2022/10/12 04:01:30;;;;;;;14.10;5.97;;;;;;;4.47;100.00;102253.56;5120613;27;20075;-82
2022/10/12 04:03:59;;;;;;;15.80;7.30;;;;;;;4.47;100.00;102254.41;5120514;27;20031;-87
2022/10/12 04:06:24;;;;;;;14.65;5.80;;;;;;;4.50;100.00;102253.28;5120833;27;20022;-88
2022/10/12 04:08:50;;;;;;;12.70;5.87;;;;;;;4.49;100.00;102255.13;5156552;27;20468;-87
2022/10/12 04:11:19;;;;;;;17.67;6.50;;;;;;;4.51;100.00;102255.84;5138082;27;20031;-87
2022/10/12 04:13:46;;;;;;;16.90;6.43;;;;;;;4.52;100.00;102254.84;5138018;27;20030;-87
2022/10/12 04:16:13;;;;;;;11.63;6.05;;;;;;;4.55;100.00;102251.03;5137579;27;20031;-87
2022/10/12 04:18:40;;;;;;;17.35;5.82;;;;;;;4.53;100.00;102243.13;5137967;27;20015;-87
2022/10/12 04:21:11;;;;;;;16.77;6.70;;;;;;;4.56;100.00;102248.22;5137025;27;20070;-88
2022/10/12 04:23:46;;;;;;;14.05;6.50;;;;;;;4.55;100.00;102248.34;5132028;27;20443;-86
2022/10/12 04:26:16;;;;;;;14.38;6.00;;;;;;;4.55;100.00;102251.88;5113488;28;20032;-86
2022/10/12 04:28:41;;;;;;;15.38;5.75;;;;;;;4.53;100.00;102258.38;5113289;28;20122;-86
2022/10/12 04:31:10;;;;;;;10.27;5.73;;;;;;;4.53;100.00;102256.56;5113222;28;20066;-86
2022/10/12 04:33:38;;;;;;;13.95;6.20;;;;;;;4.51;100.00;102244.25;5113023;28;20115;-87
2022/10/12 04:36:10;;;;;;;12.25;5.53;;;;;;;4.50;100.00;102255.97;5113299;28;20024;-87
2022/10/12 04:38:38;;;;;;;11.60;6.25;;;;;;;4.46;100.00;102249.19;5097399;28;20031;-87
2022/10/12 04:41:10;;;;;;;17.77;5.85;;;;;;;4.46;100.00;102251.88;5113589;28;20123;-87
2022/10/12 04:43:43;;;;;;;13.73;5.88;;;;;;;4.43;100.00;102253.03;5113094;28;20494;-86
2022/10/12 04:46:09;;;;;;;11.38;6.07;;;;;;;4.42;100.00;102256.69;5112441;28;20631;-87
2022/10/12 04:48:34;;;;;;;14.23;5.90;;;;;;;4.42;100.00;102255.84;5112906;28;20054;-86
2022/10/12 04:51:04;;;;;;;18.15;6.15;;;;;;;4.45;100.00;102266.31;5112888;28;20065;-86
2022/10/12 04:53:31;;;;;;;15.18;6.60;;;;;;;4.44;100.00;102261.91;5112812;28;20031;-87
2022/10/12 04:56:10;;;;;;;12.50;5.90;;;;;;;4.43;100.00;102263.78;5112827;28;20030;-87
2022/10/12 04:58:40;;;;;;;11.25;6.30;;;;;;;4.43;100.00;102262.91;5112785;28;20505;-87
2022/10/12 05:01:11;;;;;;;14.35;6.53;;;;;;;4.38;100.00;102256.13;5113799;28;20042;-86
2022/10/12 05:03:40;;;;;;;14.57;5.95;;;;;;;4.33;100.00;102263.75;5112868;28;20043;-87
2022/10/12 05:06:08;;;;;;;12.77;6.32;;;;;;;4.28;100.00;102259.78;5112622;28;20031;-87
2022/10/12 05:08:39;;;;;;;15.97;6.00;;;;;;;4.24;100.00;102256.53;5131217;28;20035;-86
2022/10/12 05:11:04;;;;;;;14.80;6.20;;;;;;;4.22;100.00;102259.38;5095447;28;20054;-86
2022/10/12 05:13:32;;;;;;;16.67;6.22;;;;;;;4.20;100.00;102252.41;5112427;28;20024;-87
2022/10/12 05:16:03;;;;;;;14.77;6.47;;;;;;;4.15;100.00;102251.97;5111863;28;20016;-86
2022/10/12 05:18:37;;;;;;;13.90;6.70;;;;;;;4.06;100.00;102245.63;5096255;28;20497;-86
2022/10/12 05:21:02;;;;;;;11.55;5.85;;;;;;;4.00;100.00;102243.47;5112396;28;20031;-86
2022/10/12 05:23:31;;;;;;;14.87;6.17;;;;;;;3.93;100.00;102237.81;5108605;28;20070;-85
2022/10/12 05:25:59;;;;;;;11.70;6.68;;;;;;;3.92;100.00;102240.63;5108724;28;20122;-85
2022/10/12 05:28:27;;;;;;;14.70;6.20;;;;;;;3.87;100.00;102235.69;5108849;28;20020;-86
2022/10/12 05:30:53;;;;;;;13.50;6.38;;;;;;;3.80;100.00;102237.22;5108690;28;20043;-84
2022/10/12 05:33:18;;;;;;;17.37;7.67;;;;;;;3.81;100.00;102238.88;5105658;28;20028;-83
2022/10/12 05:35:47;;;;;;;14.05;6.40;;;;;;;3.81;100.00;102231.69;5094903;28;20562;-83
2022/10/12 05:38:17;;;;;;;13.93;6.45;;;;;;;3.82;100.00;102228.03;5078097;28;20084;-84
2022/10/12 05:40:43;;;;;;;13.33;6.73;;;;;;;3.84;100.00;102238.63;5095228;28;20081;-83
2022/10/12 05:43:08;;;;;;;12.25;6.18;;;;;;;3.88;100.00;102237.34;5094760;28;20108;-84
2022/10/12 05:45:34;;;;;;;14.13;6.90;;;;;;;3.92;100.00;102236.09;5096103;28;20491;-84
2022/10/12 05:47:59;;;;;;;9.70;5.77;;;;;;;3.97;100.00;102230.31;5094735;28;20404;-83
2022/10/12 05:50:25;;;;;;;15.50;6.77;;;;;;;3.99;100.00;102229.19;5094941;28;20032;-83
2022/10/12 05:52:50;;;;;;;14.70;7.28;;;;;;;4.04;100.00;102228.78;5078045;28;20031;-84
2022/10/12 05:55:16;;;;;;;16.97;7.00;;;;;;;4.04;100.00;102226.97;5095972;28;20060;-84
2022/10/12 05:57:41;;;;;;;19.00;7.30;;;;;;;4.07;100.00;102230.34;5094024;28;20541;-84
2022/10/12 06:00:08;;;;;;;14.75;6.75;;;;;;;4.10;100.00;102235.44;5082609;28;20499;-84
2022/10/12 06:02:36;;;;;;;12.90;7.53;;;;;;;4.17;100.00;102240.09;5085483;28;20114;-83
2022/10/12 06:05:06;;;;;;;17.42;6.93;;;;;;;4.20;100.00;102234.44;5080673;28;20031;-85
2022/10/12 06:07:32;;;;;;;13.88;6.70;;;;;;;4.21;100.00;102233.47;5112377;28;20031;-84
2022/10/12 06:09:57;;;;;;;15.53;7.07;;;;;;;4.26;100.00;102234.91;5107282;28;20364;-84
2022/10/12 06:12:23;;;;;;;17.92;7.45;;;;;;;4.32;100.00;102232.47;5097909;28;20047;-84
2022/10/12 06:14:51;;;;;;;14.60;7.13;;;;;;;4.37;100.00;102227.56;5100250;28;20032;-84
2022/10/12 06:17:17;;;;;;;16.90;7.43;;;;;;;4.45;100.00;102236.75;5104936;28;20043;-84
2022/10/12 06:19:45;;;;;;;14.13;6.70;;;;;;;4.48;100.00;102225.72;5106351;28;20480;-85
2022/10/12 06:22:10;;;;;;;15.85;7.57;;;;;;;4.52;100.00;102238.72;5104694;28;20051;-84
2022/10/12 06:24:38;;;;;;;16.97;7.63;;;;;;;4.51;100.00;102228.13;5114755;28;20035;-83
2022/10/12 06:27:08;;;;;;;17.23;7.38;;;;;;;4.55;100.00;102233.06;5087442;28;20043;-84
2022/10/12 06:29:34;;;;;;;19.33;7.22;;;;;;;4.64;100.00;102233.22;5094704;28;20127;-83
2022/10/12 06:32:00;;;;;;;15.65;6.88;;;;;;;4.76;100.00;102233.91;5115305;28;20031;-83
2022/10/12 06:34:31;;;;;;;18.30;7.77;;;;;;;4.80;100.00;102224.56;5114378;28;20031;-83
2022/10/12 06:36:56;;;;;;;17.77;7.43;;;;;;;4.90;100.00;102228.06;5097128;28;20380;-83
2022/10/12 06:39:35;;;;;;;15.27;7.93;;;;;;;5.02;100.00;102221.56;5115567;28;20030;-83
2022/10/12 06:42:10;;;;;;;18.25;7.78;;;;;;;5.13;100.00;102219.69;5115478;28;20030;-84
2022/10/12 06:44:40;;;;;;;19.85;7.95;;;;;;;5.32;100.00;102233.09;5115281;28;20060;-83
2022/10/12 06:47:08;;;;;;;20.07;8.33;;;;;;;5.43;100.00;102222.16;5112832;28;20035;-82
2022/10/12 06:49:33;;;;;;;16.63;7.93;;;;;;;5.55;100.00;102232.69;5113948;28;20031;-85
2022/10/12 06:52:01;;;;;;;23.10;8.30;;;;;;;5.60;100.00;102225.03;5113953;28;20356;-85
2022/10/12 06:54:29;;;;;;;21.05;8.88;;;;;;;5.62;100.00;102220.34;5113553;28;20051;-86
2022/10/12 06:56:54;;;;;;;18.38;8.30;;;;;;;5.63;100.00;102225.59;5114924;28;20035;-83
2022/10/12 06:59:25;;;;;;;18.73;8.10;;;;;;;5.62;100.00;102228.44;5114915;28;20034;-83
2022/10/12 07:01:50;;;;;;;22.38;8.20;;;;;;;5.61;100.00;102235.66;5113574;28;20111;-83
2022/10/12 07:04:17;;;;;;;16.83;8.10;;;;;;;5.65;100.00;102230.81;5113568;28;20027;-83
2022/10/12 07:06:43;;;;;;;21.45;8.60;;;;;;;5.65;100.00;102230.81;5113381;28;20047;-83
2022/10/12 07:09:08;;;;;;;18.85;8.52;;;;;;;5.70;100.00;102235.75;5113398;28;20488;-83
2022/10/12 07:11:34;;;;;;;18.53;9.13;;;;;;;5.71;100.00;102238.28;5096367;28;20039;-83
2022/10/12 07:13:59;;;;;;;17.88;8.45;;;;;;;5.74;100.00;102234.47;5113404;28;20387;-83
2022/10/12 07:16:25;;;;;;;20.40;8.93;;;;;;;5.75;100.00;102230.78;5112730;28;20067;-83
2022/10/12 07:18:50;;;;;;;20.90;9.20;;;;;;;5.76;100.00;102227.09;5113870;28;20032;-83
2022/10/12 07:21:16;;;;;;;17.02;8.85;;;;;;;5.76;100.00;102230.63;5096294;28;20039;-83
2022/10/12 07:23:41;;;;;;;20.60;8.97;;;;;;;5.78;100.00;102225.94;5095971;28;20058;-83
2022/10/12 07:26:08;;;;;;;23.20;9.80;;;;;;;5.80;100.00;102223.94;5096380;28;20031;-83
2022/10/12 07:28:34;;;;;;;22.20;9.57;;;;;;;5.83;100.00;102220.13;5114907;28;20059;-84
2022/10/12 07:31:08;;;;;;;19.73;9.45;;;;;;;5.88;100.00;102222.34;5114565;28;20042;-84
2022/10/12 07:33:37;;;;;;;20.85;9.38;;;;;;;5.94;100.00;102221.75;5096281;28;20031;-83
2022/10/12 07:36:05;;;;;;;16.83;8.37;;;;;;;6.02;100.00;102219.16;5112942;28;20084;-84
2022/10/12 07:38:30;;;;;;;20.27;8.82;;;;;;;6.11;100.00;102225.47;5096159;28;20039;-83
2022/10/12 07:41:06;;;;;;;23.23;10.20;;;;;;;6.18;100.00;102225.75;5095728;28;20039;-84
2022/10/12 07:43:32;;;;;;;22.27;9.63;;;;;;;6.24;100.00;102227.81;5095344;28;20039;-84
2022/10/12 07:45:57;;;;;;;22.50;9.73;;;;;;;6.30;100.00;102224.50;5112903;28;20051;-84
2022/10/12 07:48:25;;;;;;;23.38;10.45;;;;;;;6.35;100.00;102230.31;5112383;28;20074;-84
2022/10/12 07:50:50;;;;;;;23.23;10.10;;;;;;;6.40;100.00;102225.28;5114304;28;20036;-84
2022/10/12 07:53:16;;;;;;;24.70;9.95;;;;;;;6.44;100.00;102225.84;5112116;28;20115;-84
2022/10/12 07:55:41;;;;;;;18.03;10.20;;;;;;;6.50;100.00;102233.31;5113147;28;20036;-84
2022/10/12 07:58:07;;;;;;;23.07;10.67;;;;;;;6.51;100.00;102237.69;5103368;28;20034;-84
2022/10/12 08:00:33;;;;;;;29.02;10.77;;;;;;;6.58;100.00;102237.91;5106721;28;20432;-84
2022/10/12 08:02:58;;;;;;;29.83;11.57;;;;;;;6.62;100.00;102229.34;5112594;28;20031;-84
2022/10/12 08:05:25;;;;;;;21.50;11.33;;;;;;;6.69;100.00;102232.28;5114059;28;20042;-84
2022/10/12 08:07:59;;;;;;;26.25;11.30;;;;;;;6.76;100.00;102237.88;5114040;28;20032;-84
2022/10/12 08:10:25;;;;;;;25.55;11.05;;;;;;;6.80;100.00;102241.97;5113803;28;20024;-85
2022/10/12 08:12:50;;;;;;;24.43;12.13;;;;;;;6.89;100.00;102246.44;5112517;28;20035;-84
2022/10/12 08:15:16;;;;;;;29.08;12.15;;;;;;;6.97;100.00;102242.97;5112755;28;20573;-84
2022/10/12 08:17:44;;;;;;;28.93;12.07;;;;;;;7.07;100.00;102245.53;5078346;28;20384;-84
2022/10/12 08:20:15;;;;;;;25.92;13.07;;;;;;;7.15;100.00;102232.97;5095662;28;20024;-84
2022/10/12 08:22:41;;;;;;;28.63;12.00;;;;;;;7.30;100.00;102235.06;5112387;28;20157;-85
2022/10/12 08:25:06;;;;;;;26.83;12.47;;;;;;;7.41;100.00;102237.50;5095407;28;20063;-84
2022/10/12 08:27:34;;;;;;;26.13;12.35;;;;;;;7.54;100.00;102229.81;5096041;28;20028;-85
2022/10/12 08:30:06;;;;;;;35.27;13.20;;;;;;;7.72;100.00;102231.56;5079385;28;20483;-84
2022/10/12 08:32:32;;;;;;;25.67;13.35;;;;;;;7.87;100.00;102224.53;5112451;28;20131;-84
2022/10/12 08:34:57;;;;;;;28.23;14.20;;;;;;;8.07;100.00;102221.53;5112544;28;20028;-86
2022/10/12 08:37:25;;;;;;;32.37;13.83;;;;;;;8.24;99.91;102215.16;5095014;28;20034;-85
2022/10/12 08:39:58;;;;;;;29.35;13.98;;;;;;;8.48;98.78;102220.81;5113832;28;20031;-85
2022/10/12 08:42:36;;;;;;;28.50;13.07;;;;;;;8.74;97.85;102218.78;5113625;28;20115;-85
2022/10/12 08:45:34;;;;;;;25.50;12.50;;;;;;;9.00;96.88;102222.31;5112887;28;20031;-85
2022/10/12 08:48:15;;;;;;;28.30;12.18;;;;;;;9.25;95.99;102223.13;5113103;28;20023;-85
2022/10/12 08:50:52;;;;;;;31.33;12.47;;;;;;;9.44;94.64;102216.47;5113928;28;20100;-84
2022/10/12 08:53:56;;;;;;;24.33;11.88;;;;;;;9.63;93.54;102213.34;5112405;28;20138;-85
2022/10/12 08:56:21;;;;;;;26.42;11.82;;;;;;;9.82;90.16;102214.78;5088776;28;20043;-85
2022/10/12 08:58:49;;;;;;;27.30;12.73;;;;;;;9.97;90.03;102223.00;5112436;28;20024;-85
2022/10/12 09:01:35;;;;;;;23.30;11.50;;;;;;;10.10;89.56;102224.31;5078630;28;20039;-85
2022/10/12 09:04:32;;;;;;;22.50;10.85;;;;;;;10.24;88.42;102217.25;5113512;28;20062;-85
2022/10/12 09:07:07;;;;;;;26.58;11.25;;;;;;;10.48;87.64;102225.25;5113249;28;20532;-85
2022/10/12 09:09:47;;;;;;;24.10;10.88;;;;;;;10.64;86.92;102226.97;5116212;28;20069;-85
2022/10/12 09:12:24;;;;;;;19.10;10.43;;;;;;;10.66;85.98;102233.09;5116678;28;20122;-85
2022/10/12 09:14:55;;;;;;;22.20;10.83;;;;;;;10.60;85.30;102233.81;5116124;28;20036;-85
2022/10/12 09:17:26;;;;;;;17.90;10.30;;;;;;;10.51;84.30;102240.31;5115314;28;20031;-85
2022/10/12 09:20:01;;;;;;;26.98;11.60;;;;;;;10.44;84.14;102245.63;5116058;28;20048;-85
2022/10/12 09:22:35;;;;;;;23.08;10.63;;;;;;;10.41;83.18;102239.72;5115245;28;20059;-85
2022/10/12 09:25:13;;;;;;;25.88;11.35;;;;;;;10.42;83.51;102231.38;5117318;28;20062;-85
2022/10/12 09:27:44;;;;;;;24.53;11.67;;;;;;;10.49;83.29;102236.94;5115575;28;20417;-85
2022/10/12 09:30:25;;;;;;;24.80;11.35;;;;;;;10.65;83.65;102233.28;5116916;27;20052;-85
2022/10/12 09:33:16;;;;;;;23.83;10.45;;;;;;;10.79;82.62;102221.63;5116032;28;20035;-85
2022/10/12 09:35:46;;;;;;;30.02;11.93;;;;;;;10.87;81.60;102228.84;5116974;28;20043;-85
2022/10/12 09:38:12;;;;;;;25.65;11.63;;;;;;;10.96;80.66;102227.72;5115427;28;20024;-85
2022/10/12 09:40:41;;;;;;;23.00;11.73;;;;;;;11.05;81.16;102223.91;5116673;28;20084;-85
2022/10/12 09:43:08;;;;;;;25.25;10.88;;;;;;;11.24;80.79;102230.66;5082151;28;20505;-85
2022/10/12 09:45:34;;;;;;;29.45;11.50;;;;;;;11.40;80.17;102226.09;5116420;28;20062;-85
2022/10/12 09:48:23;;;;;;;24.10;11.17;;;;;;;11.51;79.71;102233.75;5116105;28;20110;-85
2022/10/12 09:50:57;;;;;;;31.00;12.07;;;;;;;11.59;78.27;102224.69;5116146;28;20539;-85
2022/10/12 09:53:31;;;;;;;23.00;11.82;;;;;;;11.73;77.86;102221.09;5115133;28;20482;-85
2022/10/12 09:56:11;;;;;;;21.80;10.68;;;;;;;11.89;77.52;102216.50;5115389;28;20039;-85
2022/10/12 09:58:50;;;;;;;24.17;10.52;;;;;;;12.12;76.59;102219.09;5114679;28;20047;-85
2022/10/12 10:01:23;;;;;;;26.57;11.80;;;;;;;12.32;75.23;102205.69;5115281;28;20535;-85
2022/10/12 10:04:09;;;;;;;26.42;11.25;;;;;;;12.55;75.43;102204.63;5114712;28;20020;-85
2022/10/12 10:06:42;;;;;;;24.75;8.90;;;;;;;12.66;74.36;102195.97;5115887;28;20051;-85
2022/10/12 10:09:26;;;;;;;19.13;9.43;;;;;;;12.98;73.56;102193.69;5114992;28;20037;-85
2022/10/12 10:11:52;;;;;;;20.80;9.25;;;;;;;13.20;70.49;102193.63;5115054;28;20126;-85
2022/10/12 10:14:17;;;;;;;26.63;9.00;;;;;;;13.37;70.97;102191.47;5097943;28;20463;-85
2022/10/12 10:16:48;;;;;;;19.87;9.03;;;;;;;13.47;71.03;102197.38;5097281;28;20026;-84
2022/10/12 10:19:23;;;;;;;22.17;8.90;;;;;;;13.65;69.92;102197.66;5114387;28;20092;-85
2022/10/12 10:21:53;;;;;;;17.20;7.80;;;;;;;13.72;67.97;102189.53;5115904;28;20512;-85
2022/10/12 10:24:26;;;;;;;19.38;8.63;;;;;;;13.74;68.00;102197.50;5096980;28;20071;-84
2022/10/12 10:26:56;;;;;;;17.83;7.38;;;;;;;13.77;67.36;102187.00;5114471;28;20049;-84
2022/10/12 10:30:07;;;;;;;13.67;7.07;;;;;;;13.97;67.70;102189.81;5115945;28;20023;-85
2022/10/12 10:32:43;;;;;;;14.95;6.65;;;;;;;14.23;66.43;102196.38;5114635;28;20035;-85
2022/10/12 10:35:11;;;;;;;17.52;6.00;;;;;;;14.31;64.34;102195.38;5115306;27;20031;-85
2022/10/12 10:38:13;;;;;;;;;;;;;;;;;;;;;
2022/10/12 10:41:03;;;;;;;11.75;5.68;;;;;;;14.45;63.97;102188.84;5111957;28;20506;-86
2022/10/12 10:43:33;;;;;;;17.93;6.03;;;;;;;14.82;61.93;102175.69;5096559;28;20421;-85
2022/10/12 10:46:04;;;;;;;12.70;5.53;;;;;;;15.16;61.95;102173.72;5115640;28;20027;-85
2022/10/12 10:48:49;;;;;;;16.23;5.53;;;;;;;15.50;60.58;102170.88;5113715;28;20028;-85
2022/10/12 10:51:15;;;;;;;10.35;4.80;;;;;;;15.87;58.08;102174.75;5115362;28;20031;-85
2022/10/12 10:53:44;;;;;;;15.97;5.37;;;;;;;16.22;57.50;102178.97;5115251;28;20028;-85
2022/10/12 10:56:30;;;;;;;13.45;5.03;;;;;;;16.73;56.17;102168.91;5113875;28;20057;-86
2022/10/12 10:59:16;;;;;;;13.90;4.88;;;;;;;18.61;54.90;102164.63;5113640;28;20024;-85
2022/10/12 11:02:08;;;;;;;13.02;4.43;;;;;;;20.99;50.13;102158.88;5114009;28;20031;-86
2022/10/12 11:04:48;;;;;;;16.02;4.50;;;;;;;24.29;44.38;102147.53;5115742;28;20027;-85
2022/10/12 11:07:40;;;;;;;10.87;4.40;;;;;;;27.95;39.41;102146.59;5113922;28;20026;-85
2022/10/12 11:10:23;;;;;;;16.48;4.93;;;;;;;29.97;32.69;102138.81;5113691;28;20080;-86
2022/10/12 11:12:55;;;;;;;11.25;5.20;;;;;;;31.24;26.87;102137.69;5114974;28;20039;-85
2022/10/12 11:15:58;;;;;;;13.77;5.28;;;;;;;31.22;32.64;102126.81;5114073;28;20032;-86
2022/10/12 11:18:33;;;;;;;9.88;5.13;;;;;;;31.78;26.80;102126.25;5072141;28;20104;-86
2022/10/12 11:21:17;;;;;;;11.00;5.50;;;;;;;32.50;27.48;102115.44;5113332;28;20073;-86
2022/10/12 11:24:07;;;;;;;11.70;5.28;;;;;;;34.09;26.90;102103.69;5113296;28;20051;-86
2022/10/12 11:26:43;;;;;;;9.98;5.03;;;;;;;35.25;21.84;102096.31;5114664;28;20032;-86
2022/10/12 11:29:12;;;;;;;13.00;5.55;;;;;;;36.93;18.89;102090.06;5113215;28;20059;-86
2022/10/12 11:31:59;;;;;;;11.80;5.05;;;;;;;37.70;17.86;102086.50;5114089;28;20070;-86
2022/10/12 11:34:30;;;;;;;11.30;5.43;;;;;;;37.64;17.59;102076.69;5113422;28;20032;-83
2022/10/12 11:36:58;;;;;;;9.73;5.00;;;;;;;36.44;16.94;102077.94;5113071;28;20053;-84
2022/10/12 11:39:33;;;;;;;14.23;5.50;;;;;;;33.77;20.00;102070.75;5112406;28;20065;-84